createdAt,value
2022-10-01T04:00:31.591Z,8.60
2022-10-01T04:11:36.738Z,4.40
2022-10-01T04:22:36.335Z,3.40
2022-10-01T04:33:36.193Z,4.50
2022-10-01T04:44:36.072Z,3.30
2022-10-01T04:55:35.947Z,3.00
2022-10-01T05:06:35.824Z,3.70
2022-10-01T05:17:35.717Z,3.90
2022-10-01T05:28:35.725Z,2.80
2022-10-01T05:39:35.505Z,3.40
2022-10-01T05:50:35.335Z,4.20
2022-10-01T06:01:35.485Z,3.30
2022-10-01T06:12:35.093Z,2.70
2022-10-01T06:23:35.026Z,2.90
2022-10-01T06:34:34.851Z,3.60
2022-10-01T06:45:34.805Z,3.80
2022-10-01T06:56:34.611Z,3.50
2022-10-01T07:07:34.485Z,3.40
2022-10-01T07:18:34.550Z,3.10
2022-10-01T07:29:34.240Z,2.70
2022-10-01T07:40:34.118Z,2.60
2022-10-01T07:51:34.318Z,2.60
2022-10-01T08:02:33.939Z,2.50
2022-10-01T08:13:33.827Z,1.80
2022-10-01T08:24:33.634Z,2.00
2022-10-01T08:35:33.511Z,1.80
2022-10-01T08:46:33.399Z,2.80
2022-10-01T08:57:33.282Z,1.80
2022-10-01T09:08:33.141Z,2.10
2022-10-01T09:19:33.029Z,1.70
2022-10-01T09:30:32.894Z,2.00
2022-10-01T09:41:33.122Z,1.60
2022-10-01T09:52:32.656Z,2.30
2022-10-01T10:03:32.689Z,2.00
2022-10-01T10:14:32.417Z,1.60
2022-10-01T10:25:32.277Z,1.50
2022-10-01T10:36:32.363Z,1.90
2022-10-01T10:47:32.041Z,1.20
2022-10-01T10:58:31.909Z,1.80
2022-10-01T11:09:31.817Z,1.90
2022-10-01T11:20:31.677Z,1.00
2022-10-01T11:31:31.631Z,1.10
2022-10-01T11:42:31.420Z,1.20
2022-10-01T11:53:31.293Z,1.60
2022-10-01T12:04:31.171Z,1.00
2022-10-01T12:15:31.059Z,1.30
2022-10-01T12:26:30.925Z,1.10
2022-10-01T12:37:30.801Z,1.30
2022-10-01T12:48:30.677Z,1.50
2022-10-01T12:59:30.554Z,1.50
2022-10-01T13:10:30.441Z,1.20
2022-10-01T13:21:30.345Z,0.80
2022-10-01T13:32:30.208Z,1.10
2022-10-01T13:43:30.093Z,0.90
2022-10-01T13:54:29.946Z,0.90
2022-10-01T14:05:29.824Z,1.10
2022-10-01T14:16:29.730Z,1.20
2022-10-01T14:27:29.579Z,0.90
2022-10-01T14:38:29.460Z,0.80
2022-10-01T14:49:31.072Z,0.70
2022-10-01T15:00:29.209Z,0.90
2022-10-01T15:11:29.085Z,0.80
2022-10-01T15:22:28.957Z,1.00
2022-10-01T15:33:28.842Z,0.80
2022-10-01T15:44:28.719Z,1.30
2022-10-01T15:55:28.608Z,0.50
2022-10-01T16:06:28.464Z,1.40
2022-10-01T16:17:28.366Z,1.30
2022-10-01T16:28:28.350Z,1.30
2022-10-01T16:39:28.099Z,1.50
2022-10-01T16:50:27.982Z,1.30
2022-10-01T17:01:27.894Z,1.10
2022-10-01T17:12:27.733Z,0.80
2022-10-01T17:23:27.619Z,1.60
2022-10-01T17:34:27.487Z,1.30
2022-10-01T17:45:27.426Z,1.60
2022-10-01T17:56:27.240Z,1.60
2022-10-01T18:07:27.121Z,2.20
2022-10-01T18:29:26.888Z,2.00
2022-10-01T18:40:26.764Z,2.10
2022-10-01T18:51:26.627Z,2.20
2022-10-01T19:02:26.503Z,2.10
2022-10-01T19:13:26.382Z,2.10
2022-10-01T19:24:26.256Z,1.80
2022-10-01T19:35:26.153Z,1.30
2022-10-01T19:46:26.053Z,1.60
2022-10-01T19:57:25.899Z,1.70
2022-10-01T20:08:25.775Z,3.60
2022-10-01T20:19:26.659Z,2.40
2022-10-01T20:30:25.541Z,2.30
2022-10-01T20:41:25.430Z,2.00
2022-10-01T20:52:25.292Z,2.30
